Mount Vernon, AL (36560)

5:34 PM CST on February 08, 2016 (GMT -0600)
APRSWXNET | | Change Station
CLOSE
Current Station
Personal Weather Station
Location: Calvert, AL
Elevation: 49 ft
Nearby Weather Stations
Active Advisory: Wind Advisory

Elev 49 ft 31.15 °N, 88.00 °W | Updated 28 minutes ago

Partly Cloudy
Partly Cloudy
53 °F
Feels Like 53 °F
N
4
Wind Variable Wind from NNW
Gusts 17.0 mph

Today
High -- | Low -- °F
--% Chance of Precip.
Yesterday
High -- | Low -- °F
Precip. -- in
Pressure 29.94 in
Visibility 10.0 miles
Clouds Few 9000 ft
Dew Point 22 °F
Humidity 29%
Rainfall in
Snow Depth Not available.
6:39 AM 5:33 PM
New Moon, 0% visible
METAR KMOB 082256Z 31015G23KT 10SM FEW090 12/M07 A2994 RMK AO2 PK WND 29027/2159 SLP138 T01171072
Pressure 29.94 in
Visibility 10.0 miles
Clouds Few 9000 ft
Dew Point 22 °F
Humidity 29%
Rainfall in
Snow Depth Not available.
6:39 AM 5:33 PM
New Moon, 0% visible
METAR KMOB 082256Z 31015G23KT 10SM FEW090 12/M07 A2994 RMK AO2 PK WND 29027/2159 SLP138 T01171072

10-Day Weather Forecast

Almanac

Astronomy

Feb. 08, 2016 Rise Set
Actual Time
Civil Twilight
Nautical Twilight
Astronomical Twilight
Moon
Length of Visible Light
Length of Day
Tomorrow will be .
, % of the Moon is Illuminated

Today's Extremes

State Highs State Lows

Community

WunderPhotos

Upload Photos

1,891,525 photos uploaded!

WunderBlog® & News

Nearby

Air Quality

  Air Quality AQ Index Pollutant
Not available.

Snow Depth

Station Depth Elevation

Earthquake Activity

City Distance Mag. Time & Date
Minimum magnitude displayed is 2.5.

Coastal Water Temperatures

Place Temperature

Stations

Nearby Weather Stations

Station Location Temp. Windchill Dew Point Humidity Wind Precip. Elev Updated Type
                   

Watches & Warnings

Wind Advisory
Issued: 1:43 PM CST Feb. 8, 2016 – National Weather Service

... Wind Advisory remains in effect until 6 PM CST this evening...

* timing... this afternoon.

* Winds... west to northwest and increasing to 20 to 25 mph with
frequent higher gusts in excess of 30 mph.

Precautionary/preparedness actions...

A Wind Advisory means that winds of 30 to 39 mph are expected.
Winds this strong can make driving difficult... especially for
high profile vehicles. Use extra caution.